sensor_id;sensor_type;location;lat;lon;timestamp;temperature;humidity
31084;DHT22;36333;51.382;0.016;2022-07-24T00:01:45;19.20;93.00
31084;DHT22;36333;51.382;0.016;2022-07-24T00:04:13;19.20;93.00
31084;DHT22;36333;51.382;0.016;2022-07-24T00:06:40;19.20;93.10
31084;DHT22;36333;51.382;0.016;2022-07-24T00:09:08;19.20;93.10
31084;DHT22;36333;51.382;0.016;2022-07-24T00:11:35;19.30;93.20
31084;DHT22;36333;51.382;0.016;2022-07-24T00:14:03;19.30;93.30
31084;DHT22;36333;51.382;0.016;2022-07-24T00:16:30;19.20;93.20
31084;DHT22;36333;51.382;0.016;2022-07-24T00:18:58;19.20;93.20
31084;DHT22;36333;51.382;0.016;2022-07-24T00:21:26;19.30;93.30
31084;DHT22;36333;51.382;0.016;2022-07-24T00:23:53;19.20;93.30
31084;DHT22;36333;51.382;0.016;2022-07-24T00:26:21;19.20;93.40
31084;DHT22;36333;51.382;0.016;2022-07-24T00:28:48;19.20;93.40
31084;DHT22;36333;51.382;0.016;2022-07-24T00:31:17;19.20;93.50
31084;DHT22;36333;51.382;0.016;2022-07-24T00:33:45;19.20;93.60
31084;DHT22;36333;51.382;0.016;2022-07-24T00:36:13;19.20;93.60
31084;DHT22;36333;51.382;0.016;2022-07-24T00:38:41;19.20;93.70
31084;DHT22;36333;51.382;0.016;2022-07-24T00:41:08;19.10;93.70
31084;DHT22;36333;51.382;0.016;2022-07-24T00:43:57;19.10;93.80
31084;DHT22;36333;51.382;0.016;2022-07-24T00:46:23;19.10;93.90
31084;DHT22;36333;51.382;0.016;2022-07-24T00:48:51;19.10;93.90
31084;DHT22;36333;51.382;0.016;2022-07-24T00:51:19;19.10;94.00
31084;DHT22;36333;51.382;0.016;2022-07-24T00:53:46;19.00;94.30
31084;DHT22;36333;51.382;0.016;2022-07-24T00:56:14;19.00;94.50
31084;DHT22;36333;51.382;0.016;2022-07-24T00:58:41;19.00;94.60
31084;DHT22;36333;51.382;0.016;2022-07-24T01:01:08;18.90;94.70
31084;DHT22;36333;51.382;0.016;2022-07-24T01:03:36;18.90;94.70
31084;DHT22;36333;51.382;0.016;2022-07-24T01:06:03;18.90;94.70
31084;DHT22;36333;51.382;0.016;2022-07-24T01:08:33;19.00;94.70
31084;DHT22;36333;51.382;0.016;2022-07-24T01:11:03;19.00;94.60
31084;DHT22;36333;51.382;0.016;2022-07-24T01:13:30;19.00;94.60
31084;DHT22;36333;51.382;0.016;2022-07-24T01:15:58;19.00;94.80
31084;DHT22;36333;51.382;0.016;2022-07-24T01:18:26;19.00;94.70
31084;DHT22;36333;51.382;0.016;2022-07-24T01:20:53;18.90;94.70
31084;DHT22;36333;51.382;0.016;2022-07-24T01:23:22;18.90;94.70
31084;DHT22;36333;51.382;0.016;2022-07-24T01:25:50;18.80;94.80
31084;DHT22;36333;51.382;0.016;2022-07-24T01:28:18;18.80;94.80
31084;DHT22;36333;51.382;0.016;2022-07-24T01:30:45;18.80;94.90
31084;DHT22;36333;51.382;0.016;2022-07-24T01:33:13;18.80;95.00
31084;DHT22;36333;51.382;0.016;2022-07-24T01:35:41;18.70;95.10
31084;DHT22;36333;51.382;0.016;2022-07-24T01:38:09;18.70;95.00
31084;DHT22;36333;51.382;0.016;2022-07-24T01:40:37;18.70;95.00
31084;DHT22;36333;51.382;0.016;2022-07-24T01:43:04;18.70;95.00
31084;DHT22;36333;51.382;0.016;2022-07-24T01:45:31;18.70;94.90
31084;DHT22;36333;51.382;0.016;2022-07-24T01:47:59;18.60;94.90
31084;DHT22;36333;51.382;0.016;2022-07-24T01:50:26;18.70;94.90
31084;DHT22;36333;51.382;0.016;2022-07-24T01:52:54;18.70;94.80
31084;DHT22;36333;51.382;0.016;2022-07-24T01:55:22;18.60;94.70
31084;DHT22;36333;51.382;0.016;2022-07-24T01:57:49;18.70;94.70
31084;DHT22;36333;51.382;0.016;2022-07-24T02:00:17;18.70;94.70
31084;DHT22;36333;51.382;0.016;2022-07-24T02:02:46;18.70;94.70
31084;DHT22;36333;51.382;0.016;2022-07-24T02:05:13;18.70;94.70
31084;DHT22;36333;51.382;0.016;2022-07-24T02:07:41;18.60;94.70
31084;DHT22;36333;51.382;0.016;2022-07-24T02:10:10;18.60;94.70
31084;DHT22;36333;51.382;0.016;2022-07-24T02:12:37;18.60;94.70
31084;DHT22;36333;51.382;0.016;2022-07-24T02:15:05;18.50;94.70
31084;DHT22;36333;51.382;0.016;2022-07-24T02:17:33;18.50;94.70
31084;DHT22;36333;51.382;0.016;2022-07-24T02:20:00;18.50;94.80
31084;DHT22;36333;51.382;0.016;2022-07-24T02:22:28;18.50;94.80
31084;DHT22;36333;51.382;0.016;2022-07-24T02:24:56;18.50;94.80
31084;DHT22;36333;51.382;0.016;2022-07-24T02:27:23;18.50;94.80
31084;DHT22;36333;51.382;0.016;2022-07-24T02:29:50;18.50;94.90
31084;DHT22;36333;51.382;0.016;2022-07-24T02:32:18;18.40;94.80
31084;DHT22;36333;51.382;0.016;2022-07-24T02:34:45;18.50;94.90
31084;DHT22;36333;51.382;0.016;2022-07-24T02:37:12;18.50;94.90
31084;DHT22;36333;51.382;0.016;2022-07-24T02:39:40;18.50;94.90
31084;DHT22;36333;51.382;0.016;2022-07-24T02:42:07;18.40;94.90
31084;DHT22;36333;51.382;0.016;2022-07-24T02:44:35;18.40;94.90
31084;DHT22;36333;51.382;0.016;2022-07-24T02:47:02;18.50;95.00
31084;DHT22;36333;51.382;0.016;2022-07-24T02:49:30;18.50;94.90
31084;DHT22;36333;51.382;0.016;2022-07-24T02:51:57;18.50;94.90
31084;DHT22;36333;51.382;0.016;2022-07-24T02:54:24;18.50;94.90
31084;DHT22;36333;51.382;0.016;2022-07-24T02:56:52;18.50;94.90
31084;DHT22;36333;51.382;0.016;2022-07-24T02:59:19;18.40;94.80
31084;DHT22;36333;51.382;0.016;2022-07-24T03:01:47;18.50;94.80
31084;DHT22;36333;51.382;0.016;2022-07-24T03:04:14;18.50;94.80
31084;DHT22;36333;51.382;0.016;2022-07-24T03:06:42;18.50;94.80
31084;DHT22;36333;51.382;0.016;2022-07-24T03:09:09;18.50;94.80
31084;DHT22;36333;51.382;0.016;2022-07-24T03:11:36;18.40;94.80
31084;DHT22;36333;51.382;0.016;2022-07-24T03:14:04;18.50;94.90
31084;DHT22;36333;51.382;0.016;2022-07-24T03:16:31;18.40;94.90
31084;DHT22;36333;51.382;0.016;2022-07-24T03:19:04;18.40;95.00
31084;DHT22;36333;51.382;0.016;2022-07-24T03:21:32;18.40;95.10
31084;DHT22;36333;51.382;0.016;2022-07-24T03:24:15;18.40;95.00
31084;DHT22;36333;51.382;0.016;2022-07-24T03:26:42;18.30;95.00
31084;DHT22;36333;51.382;0.016;2022-07-24T03:29:10;18.30;95.00
31084;DHT22;36333;51.382;0.016;2022-07-24T03:31:37;18.30;95.00
31084;DHT22;36333;51.382;0.016;2022-07-24T03:34:05;18.30;94.90
31084;DHT22;36333;51.382;0.016;2022-07-24T03:36:33;18.40;94.90
31084;DHT22;36333;51.382;0.016;2022-07-24T03:39:00;18.40;94.90
31084;DHT22;36333;51.382;0.016;2022-07-24T03:41:29;18.40;94.90
31084;DHT22;36333;51.382;0.016;2022-07-24T03:43:56;18.40;94.90
31084;DHT22;36333;51.382;0.016;2022-07-24T03:46:23;18.40;94.80
31084;DHT22;36333;51.382;0.016;2022-07-24T03:48:51;18.30;94.80
31084;DHT22;36333;51.382;0.016;2022-07-24T03:51:18;18.30;94.90
31084;DHT22;36333;51.382;0.016;2022-07-24T03:53:46;18.30;95.00
31084;DHT22;36333;51.382;0.016;2022-07-24T03:56:15;18.30;95.00
31084;DHT22;36333;51.382;0.016;2022-07-24T03:58:43;18.30;95.10
31084;DHT22;36333;51.382;0.016;2022-07-24T04:01:11;18.30;95.10
31084;DHT22;36333;51.382;0.016;2022-07-24T04:03:39;18.20;95.10
31084;DHT22;36333;51.382;0.016;2022-07-24T04:06:06;18.30;95.10
31084;DHT22;36333;51.382;0.016;2022-07-24T04:08:33;18.20;95.10
31084;DHT22;36333;51.382;0.016;2022-07-24T04:11:01;18.20;95.10
31084;DHT22;36333;51.382;0.016;2022-07-24T04:13:29;18.20;95.00
31084;DHT22;36333;51.382;0.016;2022-07-24T04:15:56;18.30;95.00
31084;DHT22;36333;51.382;0.016;2022-07-24T04:18:24;18.30;94.90
31084;DHT22;36333;51.382;0.016;2022-07-24T04:20:51;18.30;94.90
31084;DHT22;36333;51.382;0.016;2022-07-24T04:23:19;18.20;95.00
31084;DHT22;36333;51.382;0.016;2022-07-24T04:25:47;18.20;95.00
31084;DHT22;36333;51.382;0.016;2022-07-24T04:28:14;18.20;95.10
31084;DHT22;36333;51.382;0.016;2022-07-24T04:30:41;18.20;95.10
31084;DHT22;36333;51.382;0.016;2022-07-24T04:33:09;18.20;95.20
31084;DHT22;36333;51.382;0.016;2022-07-24T04:35:36;18.20;95.30
31084;DHT22;36333;51.382;0.016;2022-07-24T04:38:04;18.20;95.30
31084;DHT22;36333;51.382;0.016;2022-07-24T04:40:31;18.20;95.30
31084;DHT22;36333;51.382;0.016;2022-07-24T04:42:58;18.20;95.40
31084;DHT22;36333;51.382;0.016;2022-07-24T04:45:26;18.20;95.40
31084;DHT22;36333;51.382;0.016;2022-07-24T04:48:01;18.20;95.30
31084;DHT22;36333;51.382;0.016;2022-07-24T04:50:29;18.20;95.30
31084;DHT22;36333;51.382;0.016;2022-07-24T04:52:56;18.20;95.30
31084;DHT22;36333;51.382;0.016;2022-07-24T04:55:24;18.20;95.30
31084;DHT22;36333;51.382;0.016;2022-07-24T04:57:52;18.20;95.40
31084;DHT22;36333;51.382;0.016;2022-07-24T05:00:20;18.20;95.40
31084;DHT22;36333;51.382;0.016;2022-07-24T05:02:47;18.20;95.40
31084;DHT22;36333;51.382;0.016;2022-07-24T05:05:15;18.20;95.50
31084;DHT22;36333;51.382;0.016;2022-07-24T05:07:42;18.20;95.50
31084;DHT22;36333;51.382;0.016;2022-07-24T05:10:10;18.20;95.40
31084;DHT22;36333;51.382;0.016;2022-07-24T05:12:37;18.20;95.40
31084;DHT22;36333;51.382;0.016;2022-07-24T05:15:05;18.30;95.40
31084;DHT22;36333;51.382;0.016;2022-07-24T05:17:33;18.30;95.40
31084;DHT22;36333;51.382;0.016;2022-07-24T05:20:01;18.30;95.40
31084;DHT22;36333;51.382;0.016;2022-07-24T05:22:28;18.30;95.30
31084;DHT22;36333;51.382;0.016;2022-07-24T05:24:56;18.30;95.40
31084;DHT22;36333;51.382;0.016;2022-07-24T05:27:23;18.30;95.40
31084;DHT22;36333;51.382;0.016;2022-07-24T05:29:51;18.30;95.40
31084;DHT22;36333;51.382;0.016;2022-07-24T05:32:18;18.30;95.60
31084;DHT22;36333;51.382;0.016;2022-07-24T05:34:45;18.30;95.40
31084;DHT22;36333;51.382;0.016;2022-07-24T05:37:13;18.30;95.30
31084;DHT22;36333;51.382;0.016;2022-07-24T05:39:40;18.30;95.30
31084;DHT22;36333;51.382;0.016;2022-07-24T05:42:08;18.30;95.30
31084;DHT22;36333;51.382;0.016;2022-07-24T05:44:35;18.30;95.20
31084;DHT22;36333;51.382;0.016;2022-07-24T05:47:03;18.30;95.10
31084;DHT22;36333;51.382;0.016;2022-07-24T05:49:34;18.30;95.10
31084;DHT22;36333;51.382;0.016;2022-07-24T05:52:01;18.30;95.10
31084;DHT22;36333;51.382;0.016;2022-07-24T05:54:35;18.30;95.10
31084;DHT22;36333;51.382;0.016;2022-07-24T05:57:02;18.30;95.10
31084;DHT22;36333;51.382;0.016;2022-07-24T05:59:30;18.30;95.20
31084;DHT22;36333;51.382;0.016;2022-07-24T06:01:57;18.30;95.20
31084;DHT22;36333;51.382;0.016;2022-07-24T06:04:27;18.40;95.30
31084;DHT22;36333;51.382;0.016;2022-07-24T06:06:54;18.40;95.20
31084;DHT22;36333;51.382;0.016;2022-07-24T06:09:22;18.40;95.30
31084;DHT22;36333;51.382;0.016;2022-07-24T06:11:49;18.40;95.30
31084;DHT22;36333;51.382;0.016;2022-07-24T06:14:17;18.40;95.40
31084;DHT22;36333;51.382;0.016;2022-07-24T06:16:44;18.50;95.50
31084;DHT22;36333;51.382;0.016;2022-07-24T06:19:12;18.50;95.50
31084;DHT22;36333;51.382;0.016;2022-07-24T06:21:39;18.50;95.50
31084;DHT22;36333;51.382;0.016;2022-07-24T06:24:07;18.50;95.60
31084;DHT22;36333;51.382;0.016;2022-07-24T06:26:34;18.60;95.60
31084;DHT22;36333;51.382;0.016;2022-07-24T06:29:21;18.60;95.60
31084;DHT22;36333;51.382;0.016;2022-07-24T06:31:49;18.60;95.60
31084;DHT22;36333;51.382;0.016;2022-07-24T06:34:16;18.60;95.60
31084;DHT22;36333;51.382;0.016;2022-07-24T06:36:44;18.60;95.70
31084;DHT22;36333;51.382;0.016;2022-07-24T06:39:11;18.70;95.90
31084;DHT22;36333;51.382;0.016;2022-07-24T06:41:39;18.70;95.60
31084;DHT22;36333;51.382;0.016;2022-07-24T06:44:14;18.70;95.70
31084;DHT22;36333;51.382;0.016;2022-07-24T06:46:41;18.80;95.70
31084;DHT22;36333;51.382;0.016;2022-07-24T06:49:09;18.80;95.70
31084;DHT22;36333;51.382;0.016;2022-07-24T06:51:36;18.90;95.60
31084;DHT22;36333;51.382;0.016;2022-07-24T06:54:04;18.90;95.50
31084;DHT22;36333;51.382;0.016;2022-07-24T06:56:31;18.90;95.40
31084;DHT22;36333;51.382;0.016;2022-07-24T06:58:59;19.00;95.40
31084;DHT22;36333;51.382;0.016;2022-07-24T07:01:27;19.00;95.10
31084;DHT22;36333;51.382;0.016;2022-07-24T07:03:55;19.10;95.00
31084;DHT22;36333;51.382;0.016;2022-07-24T07:06:22;19.10;95.00
31084;DHT22;36333;51.382;0.016;2022-07-24T07:08:50;19.20;94.80
31084;DHT22;36333;51.382;0.016;2022-07-24T07:11:17;19.20;94.50
31084;DHT22;36333;51.382;0.016;2022-07-24T07:13:44;19.30;94.40
31084;DHT22;36333;51.382;0.016;2022-07-24T07:16:12;19.30;94.10
31084;DHT22;36333;51.382;0.016;2022-07-24T07:18:39;19.40;94.00
31084;DHT22;36333;51.382;0.016;2022-07-24T07:21:07;19.40;93.90
31084;DHT22;36333;51.382;0.016;2022-07-24T07:23:34;19.50;94.00
31084;DHT22;36333;51.382;0.016;2022-07-24T07:26:02;19.50;93.70
31084;DHT22;36333;51.382;0.016;2022-07-24T07:28:29;19.60;93.50
31084;DHT22;36333;51.382;0.016;2022-07-24T07:30:57;19.60;93.40
31084;DHT22;36333;51.382;0.016;2022-07-24T07:33:24;19.70;93.40
31084;DHT22;36333;51.382;0.016;2022-07-24T07:35:53;19.70;93.30
31084;DHT22;36333;51.382;0.016;2022-07-24T07:38:21;19.70;93.00
31084;DHT22;36333;51.382;0.016;2022-07-24T07:40:52;19.80;92.70
31084;DHT22;36333;51.382;0.016;2022-07-24T07:43:20;19.80;92.80
31084;DHT22;36333;51.382;0.016;2022-07-24T07:45:47;19.80;92.90
31084;DHT22;36333;51.382;0.016;2022-07-24T07:48:15;19.90;92.90
31084;DHT22;36333;51.382;0.016;2022-07-24T07:50:43;19.90;92.60
31084;DHT22;36333;51.382;0.016;2022-07-24T07:53:10;20.00;92.40
31084;DHT22;36333;51.382;0.016;2022-07-24T07:55:38;20.00;92.20
31084;DHT22;36333;51.382;0.016;2022-07-24T07:58:05;20.10;92.20
31084;DHT22;36333;51.382;0.016;2022-07-24T08:00:33;20.10;92.30
31084;DHT22;36333;51.382;0.016;2022-07-24T08:03:01;20.10;92.20
31084;DHT22;36333;51.382;0.016;2022-07-24T08:05:29;20.20;91.90
31084;DHT22;36333;51.382;0.016;2022-07-24T08:07:56;20.20;92.00
31084;DHT22;36333;51.382;0.016;2022-07-24T08:10:24;20.20;92.10
31084;DHT22;36333;51.382;0.016;2022-07-24T08:12:51;20.20;92.10
31084;DHT22;36333;51.382;0.016;2022-07-24T08:15:19;20.20;91.80
31084;DHT22;36333;51.382;0.016;2022-07-24T08:17:50;20.30;91.90
31084;DHT22;36333;51.382;0.016;2022-07-24T08:20:18;20.30;91.80
31084;DHT22;36333;51.382;0.016;2022-07-24T08:22:47;20.50;91.50
31084;DHT22;36333;51.382;0.016;2022-07-24T08:25:14;20.50;91.20
31084;DHT22;36333;51.382;0.016;2022-07-24T08:27:46;20.60;91.00
31084;DHT22;36333;51.382;0.016;2022-07-24T08:30:14;20.70;91.00
31084;DHT22;36333;51.382;0.016;2022-07-24T08:32:42;20.80;90.60
31084;DHT22;36333;51.382;0.016;2022-07-24T08:35:11;20.80;90.10
31084;DHT22;36333;51.382;0.016;2022-07-24T08:37:39;20.90;90.00
31084;DHT22;36333;51.382;0.016;2022-07-24T08:40:08;21.00;90.00
31084;DHT22;36333;51.382;0.016;2022-07-24T08:42:36;21.00;90.20
31084;DHT22;36333;51.382;0.016;2022-07-24T08:45:03;21.10;90.40
31084;DHT22;36333;51.382;0.016;2022-07-24T08:47:31;21.20;90.20
31084;DHT22;36333;51.382;0.016;2022-07-24T08:50:04;21.30;88.60
31084;DHT22;36333;51.382;0.016;2022-07-24T08:52:33;21.30;87.90
31084;DHT22;36333;51.382;0.016;2022-07-24T08:55:07;21.40;87.80
31084;DHT22;36333;51.382;0.016;2022-07-24T08:57:34;21.50;88.00
31084;DHT22;36333;51.382;0.016;2022-07-24T09:00:03;21.50;87.60
31084;DHT22;36333;51.382;0.016;2022-07-24T09:02:31;21.60;86.10
31084;DHT22;36333;51.382;0.016;2022-07-24T09:04:59;21.60;86.20
31084;DHT22;36333;51.382;0.016;2022-07-24T09:07:27;21.70;85.90
31084;DHT22;36333;51.382;0.016;2022-07-24T09:12:26;21.80;84.20
31084;DHT22;36333;51.382;0.016;2022-07-24T09:14:56;21.90;83.70
31084;DHT22;36333;51.382;0.016;2022-07-24T09:17:24;22.00;82.60
31084;DHT22;36333;51.382;0.016;2022-07-24T09:19:54;22.10;81.20
31084;DHT22;36333;51.382;0.016;2022-07-24T09:27:45;22.30;81.20
31084;DHT22;36333;51.382;0.016;2022-07-24T09:30:30;22.40;82.70
31084;DHT22;36333;51.382;0.016;2022-07-24T09:33:00;22.40;82.00
31084;DHT22;36333;51.382;0.016;2022-07-24T09:35:29;22.50;82.20
31084;DHT22;36333;51.382;0.016;2022-07-24T09:37:57;22.60;81.80
31084;DHT22;36333;51.382;0.016;2022-07-24T09:40:27;22.60;83.20
31084;DHT22;36333;51.382;0.016;2022-07-24T09:45:54;22.10;82.10
31084;DHT22;36333;51.382;0.016;2022-07-24T09:48:23;22.10;82.30
31084;DHT22;36333;51.382;0.016;2022-07-24T09:50:55;22.10;82.20
31084;DHT22;36333;51.382;0.016;2022-07-24T09:53:24;22.10;82.20
31084;DHT22;36333;51.382;0.016;2022-07-24T09:56:11;22.10;81.70
31084;DHT22;36333;51.382;0.016;2022-07-24T10:01:17;22.30;81.10
31084;DHT22;36333;51.382;0.016;2022-07-24T10:03:45;22.30;80.80
31084;DHT22;36333;51.382;0.016;2022-07-24T10:06:14;22.40;80.70
31084;DHT22;36333;51.382;0.016;2022-07-24T10:08:42;22.50;80.30
31084;DHT22;36333;51.382;0.016;2022-07-24T10:11:11;22.60;78.80
31084;DHT22;36333;51.382;0.016;2022-07-24T10:13:38;22.70;78.70
31084;DHT22;36333;51.382;0.016;2022-07-24T10:18:59;22.90;77.00
31084;DHT22;36333;51.382;0.016;2022-07-24T10:21:31;23.10;76.50
31084;DHT22;36333;51.382;0.016;2022-07-24T10:29:11;23.50;73.70
31084;DHT22;36333;51.382;0.016;2022-07-24T10:31:40;23.60;75.30
31084;DHT22;36333;51.382;0.016;2022-07-24T10:34:12;23.70;75.50
31084;DHT22;36333;51.382;0.016;2022-07-24T10:36:44;23.80;74.90
31084;DHT22;36333;51.382;0.016;2022-07-24T10:39:20;23.90;74.50
31084;DHT22;36333;51.382;0.016;2022-07-24T10:47:34;24.10;73.70
31084;DHT22;36333;51.382;0.016;2022-07-24T10:50:02;24.20;73.30
31084;DHT22;36333;51.382;0.016;2022-07-24T10:52:32;24.20;73.80
31084;DHT22;36333;51.382;0.016;2022-07-24T11:00:26;24.40;73.50
31084;DHT22;36333;51.382;0.016;2022-07-24T11:03:36;24.50;72.20
31084;DHT22;36333;51.382;0.016;2022-07-24T11:06:01;24.60;71.40
31084;DHT22;36333;51.382;0.016;2022-07-24T11:08:29;24.60;71.50
31084;DHT22;36333;51.382;0.016;2022-07-24T11:11:11;24.50;71.80
31084;DHT22;36333;51.382;0.016;2022-07-24T11:13:39;24.50;71.80
31084;DHT22;36333;51.382;0.016;2022-07-24T11:29:13;24.90;70.40
31084;DHT22;36333;51.382;0.016;2022-07-24T11:31:45;25.00;69.20
31084;DHT22;36333;51.382;0.016;2022-07-24T11:34:13;25.00;69.50
31084;DHT22;36333;51.382;0.016;2022-07-24T11:36:42;25.00;69.00
31084;DHT22;36333;51.382;0.016;2022-07-24T11:39:10;25.00;69.40
31084;DHT22;36333;51.382;0.016;2022-07-24T11:44:12;25.00;70.00
31084;DHT22;36333;51.382;0.016;2022-07-24T11:46:41;25.10;69.80
31084;DHT22;36333;51.382;0.016;2022-07-24T11:49:09;25.20;70.00
31084;DHT22;36333;51.382;0.016;2022-07-24T11:51:43;25.30;70.40
31084;DHT22;36333;51.382;0.016;2022-07-24T11:54:11;25.30;69.70
31084;DHT22;36333;51.382;0.016;2022-07-24T11:56:39;25.30;70.10
31084;DHT22;36333;51.382;0.016;2022-07-24T11:59:23;25.40;70.90
31084;DHT22;36333;51.382;0.016;2022-07-24T12:01:55;25.40;71.00
31084;DHT22;36333;51.382;0.016;2022-07-24T12:04:23;25.40;71.00
31084;DHT22;36333;51.382;0.016;2022-07-24T12:06:51;25.50;70.40
31084;DHT22;36333;51.382;0.016;2022-07-24T12:09:19;25.50;69.80
31084;DHT22;36333;51.382;0.016;2022-07-24T12:11:46;25.60;69.10
31084;DHT22;36333;51.382;0.016;2022-07-24T12:14:20;25.60;68.90
31084;DHT22;36333;51.382;0.016;2022-07-24T12:16:52;25.60;68.80
31084;DHT22;36333;51.382;0.016;2022-07-24T12:19:21;25.50;69.10
31084;DHT22;36333;51.382;0.016;2022-07-24T12:21:53;25.50;69.40
31084;DHT22;36333;51.382;0.016;2022-07-24T12:24:20;25.60;69.40
31084;DHT22;36333;51.382;0.016;2022-07-24T12:26:49;25.60;69.80
31084;DHT22;36333;51.382;0.016;2022-07-24T12:29:16;25.70;70.00
31084;DHT22;36333;51.382;0.016;2022-07-24T12:31:46;25.80;68.80
31084;DHT22;36333;51.382;0.016;2022-07-24T12:34:13;25.90;68.80
31084;DHT22;36333;51.382;0.016;2022-07-24T12:36:41;26.00;68.60
31084;DHT22;36333;51.382;0.016;2022-07-24T12:39:09;26.20;67.90
31084;DHT22;36333;51.382;0.016;2022-07-24T12:41:44;26.30;67.70
31084;DHT22;36333;51.382;0.016;2022-07-24T12:44:16;25.50;66.90
31084;DHT22;36333;51.382;0.016;2022-07-24T12:46:44;26.40;67.80
31084;DHT22;36333;51.382;0.016;2022-07-24T12:49:15;26.50;66.70
31084;DHT22;36333;51.382;0.016;2022-07-24T12:56:51;26.40;66.10
31084;DHT22;36333;51.382;0.016;2022-07-24T13:01:53;26.40;67.00
31084;DHT22;36333;51.382;0.016;2022-07-24T13:04:22;26.50;66.70
31084;DHT22;36333;51.382;0.016;2022-07-24T13:06:51;26.60;66.30
31084;DHT22;36333;51.382;0.016;2022-07-24T13:09:20;26.70;66.10
31084;DHT22;36333;51.382;0.016;2022-07-24T13:11:48;26.80;66.00
31084;DHT22;36333;51.382;0.016;2022-07-24T13:14:16;26.80;65.40
31084;DHT22;36333;51.382;0.016;2022-07-24T13:16:45;26.90;65.80
31084;DHT22;36333;51.382;0.016;2022-07-24T13:19:12;26.90;65.70
31084;DHT22;36333;51.382;0.016;2022-07-24T13:21:41;27.00;65.50
31084;DHT22;36333;51.382;0.016;2022-07-24T13:24:11;27.00;65.40
31084;DHT22;36333;51.382;0.016;2022-07-24T13:26:39;27.10;65.80
31084;DHT22;36333;51.382;0.016;2022-07-24T13:29:07;27.10;64.80
31084;DHT22;36333;51.382;0.016;2022-07-24T13:31:35;27.00;65.60
31084;DHT22;36333;51.382;0.016;2022-07-24T13:34:03;27.00;64.90
31084;DHT22;36333;51.382;0.016;2022-07-24T13:36:34;26.90;65.00
31084;DHT22;36333;51.382;0.016;2022-07-24T13:39:04;26.90;64.90
31084;DHT22;36333;51.382;0.016;2022-07-24T13:41:34;26.80;64.70
31084;DHT22;36333;51.382;0.016;2022-07-24T13:44:02;26.80;65.30
31084;DHT22;36333;51.382;0.016;2022-07-24T13:46:31;26.80;66.00
31084;DHT22;36333;51.382;0.016;2022-07-24T13:48:59;26.80;66.10
31084;DHT22;36333;51.382;0.016;2022-07-24T13:51:27;26.70;64.80
31084;DHT22;36333;51.382;0.016;2022-07-24T13:53:57;26.80;64.80
31084;DHT22;36333;51.382;0.016;2022-07-24T13:56:26;26.80;64.70
31084;DHT22;36333;51.382;0.016;2022-07-24T13:58:54;26.80;65.20
31084;DHT22;36333;51.382;0.016;2022-07-24T14:01:23;26.80;65.90
31084;DHT22;36333;51.382;0.016;2022-07-24T14:04:04;26.80;65.70
31084;DHT22;36333;51.382;0.016;2022-07-24T14:06:54;26.80;66.10
31084;DHT22;36333;51.382;0.016;2022-07-24T14:09:22;26.70;65.90
31084;DHT22;36333;51.382;0.016;2022-07-24T14:11:50;26.60;65.80
31084;DHT22;36333;51.382;0.016;2022-07-24T14:14:18;26.50;65.80
31084;DHT22;36333;51.382;0.016;2022-07-24T14:16:45;26.40;66.00
31084;DHT22;36333;51.382;0.016;2022-07-24T14:19:13;26.40;65.80
31084;DHT22;36333;51.382;0.016;2022-07-24T14:21:41;26.30;65.80
31084;DHT22;36333;51.382;0.016;2022-07-24T14:24:14;26.30;65.60
31084;DHT22;36333;51.382;0.016;2022-07-24T14:26:44;26.20;64.80
31084;DHT22;36333;51.382;0.016;2022-07-24T14:29:12;26.20;64.90
31084;DHT22;36333;51.382;0.016;2022-07-24T14:31:39;26.20;64.70
31084;DHT22;36333;51.382;0.016;2022-07-24T14:34:07;26.20;64.40
31084;DHT22;36333;51.382;0.016;2022-07-24T14:36:36;26.20;64.00
31084;DHT22;36333;51.382;0.016;2022-07-24T14:39:04;26.20;64.30
31084;DHT22;36333;51.382;0.016;2022-07-24T14:41:32;26.30;63.90
31084;DHT22;36333;51.382;0.016;2022-07-24T14:43:59;26.50;64.20
31084;DHT22;36333;51.382;0.016;2022-07-24T14:46:32;26.70;63.10
31084;DHT22;36333;51.382;0.016;2022-07-24T14:49:00;26.80;62.60
31084;DHT22;36333;51.382;0.016;2022-07-24T14:51:28;26.90;62.60
31084;DHT22;36333;51.382;0.016;2022-07-24T14:53:55;27.00;62.00
31084;DHT22;36333;51.382;0.016;2022-07-24T14:56:23;27.10;61.80
31084;DHT22;36333;51.382;0.016;2022-07-24T14:58:53;27.30;62.00
31084;DHT22;36333;51.382;0.016;2022-07-24T15:01:21;27.50;61.40
31084;DHT22;36333;51.382;0.016;2022-07-24T15:03:49;27.60;60.90
31084;DHT22;36333;51.382;0.016;2022-07-24T15:06:18;27.70;60.70
31084;DHT22;36333;51.382;0.016;2022-07-24T15:08:45;27.70;61.10
31084;DHT22;36333;51.382;0.016;2022-07-24T15:11:13;27.80;60.90
31084;DHT22;36333;51.382;0.016;2022-07-24T15:13:40;26.80;60.10
31084;DHT22;36333;51.382;0.016;2022-07-24T15:16:08;28.20;61.90
31084;DHT22;36333;51.382;0.016;2022-07-24T15:18:36;28.40;61.50
31084;DHT22;36333;51.382;0.016;2022-07-24T15:21:04;28.60;60.30
31084;DHT22;36333;51.382;0.016;2022-07-24T15:23:32;28.80;60.20
31084;DHT22;36333;51.382;0.016;2022-07-24T15:26:00;29.00;59.40
31084;DHT22;36333;51.382;0.016;2022-07-24T15:28:27;29.10;59.40
31084;DHT22;36333;51.382;0.016;2022-07-24T15:30:55;29.20;58.90
31084;DHT22;36333;51.382;0.016;2022-07-24T15:33:23;29.30;57.40
31084;DHT22;36333;51.382;0.016;2022-07-24T15:35:51;29.30;57.40
31084;DHT22;36333;51.382;0.016;2022-07-24T15:38:18;29.20;56.20
31084;DHT22;36333;51.382;0.016;2022-07-24T15:40:47;29.10;57.00
31084;DHT22;36333;51.382;0.016;2022-07-24T15:43:16;29.10;57.30
31084;DHT22;36333;51.382;0.016;2022-07-24T15:45:45;29.20;57.10
31084;DHT22;36333;51.382;0.016;2022-07-24T15:48:12;29.20;56.50
31084;DHT22;36333;51.382;0.016;2022-07-24T15:50:40;29.10;56.40
31084;DHT22;36333;51.382;0.016;2022-07-24T15:53:10;29.20;56.50
31084;DHT22;36333;51.382;0.016;2022-07-24T15:55:37;29.20;56.90
31084;DHT22;36333;51.382;0.016;2022-07-24T15:58:04;29.30;56.80
31084;DHT22;36333;51.382;0.016;2022-07-24T16:00:32;29.30;56.70
31084;DHT22;36333;51.382;0.016;2022-07-24T16:03:00;29.40;56.40
31084;DHT22;36333;51.382;0.016;2022-07-24T16:05:28;29.30;56.00
31084;DHT22;36333;51.382;0.016;2022-07-24T16:07:57;29.20;55.60
31084;DHT22;36333;51.382;0.016;2022-07-24T16:10:25;29.00;55.80
31084;DHT22;36333;51.382;0.016;2022-07-24T16:12:52;28.70;56.00
31084;DHT22;36333;51.382;0.016;2022-07-24T16:15:28;28.60;56.50
31084;DHT22;36333;51.382;0.016;2022-07-24T16:17:55;28.40;56.80
31084;DHT22;36333;51.382;0.016;2022-07-24T16:20:23;28.40;57.20
31084;DHT22;36333;51.382;0.016;2022-07-24T16:22:50;28.40;56.50
31084;DHT22;36333;51.382;0.016;2022-07-24T16:25:18;28.40;56.60
31084;DHT22;36333;51.382;0.016;2022-07-24T16:27:45;28.40;56.80
31084;DHT22;36333;51.382;0.016;2022-07-24T16:30:13;28.20;57.00
31084;DHT22;36333;51.382;0.016;2022-07-24T16:32:40;28.10;57.50
31084;DHT22;36333;51.382;0.016;2022-07-24T16:35:08;27.90;57.50